Liberty, Washington
Current Conditions -  °F | °C
As of 7:53 PM on Thursday 20 Nov 2014 (Local Time) from KELN Reporting Station
Haze Haze  
Wind Chill: 32°   Ceiling: 9000
Heat Index: 32°   Visibility: 6mi
Dew Point: 25°   Wind: 0mph
Humidity: 75%   Direction: NA
Pressure: 30"   Gusts: NA
Location:  47.3367°N, 121.023°W
Report Text: KELN 210353Z AUTO 00000KT 6SM HZ OVC090 00/M04 A3000 RMK AO2 SLP175 T00001039
Loading
Personal Weather Stations






























Interactive Weather Map New forecast layout! Learn more

10-Day Weather Forecast

Advertisements
Track Severe Weather on mobile